Midvale, Idaho
Current Conditions -  °F | °C
As of 11:53 AM on Tuesday 27 Jan 2015 (Local Time) from KONO Reporting Station
Haze Haze  
Wind Chill: 33°   Ceiling: 300
Heat Index: 33°   Visibility: 3mi
Dew Point: 32°   Wind: 0mph
Humidity: 96%   Direction: NA
Pressure: 30.17"   Gusts: NA
Location:  44.47°N, 116.73°W
Report Text: KONO 271853Z AUTO 00000KT 3SM BR OVC003 01/00 A3017 RMK AO2 SLP237 T00060000
Loading
Personal Weather Stations






























Interactive Weather Map New forecast layout! Learn more

10-Day Weather Forecast

Advertisements
Track Severe Weather on mobile